createdAt,value
2022-11-30T00:01:37.409Z,14.97
2022-11-30T00:06:43.025Z,14.98
2022-11-30T00:11:46.527Z,14.97
2022-11-30T00:16:49.879Z,14.95
2022-11-30T00:21:53.294Z,14.93
2022-11-30T00:26:56.942Z,14.91
2022-11-30T00:32:00.025Z,14.91
2022-11-30T00:37:04.413Z,14.89
2022-11-30T00:42:07.800Z,14.93
2022-11-30T00:47:11.120Z,14.92
2022-11-30T00:52:14.206Z,14.90
2022-11-30T00:57:17.192Z,14.90
2022-11-30T01:02:21.910Z,14.91
2022-11-30T01:07:26.124Z,14.90
2022-11-30T01:12:29.219Z,14.89
2022-11-30T01:17:32.164Z,14.88
2022-11-30T01:22:36.193Z,14.88
2022-11-30T01:27:41.790Z,14.75
2022-11-30T01:32:45.299Z,14.84
2022-11-30T01:37:48.942Z,14.86
2022-11-30T01:42:52.468Z,14.88
2022-11-30T01:47:57.876Z,14.86
2022-11-30T01:53:03.268Z,14.87
2022-11-30T01:58:16.885Z,14.86
2022-11-30T02:03:21.411Z,14.87
2022-11-30T02:08:26.680Z,14.87
2022-11-30T02:13:30.963Z,14.87
2022-11-30T02:18:47.854Z,14.86
2022-11-30T02:24:09.440Z,14.86
2022-11-30T02:29:25.103Z,14.83
2022-11-30T02:34:33.132Z,14.87
2022-11-30T02:39:36.541Z,14.86
2022-11-30T02:44:47.809Z,14.89
2022-11-30T02:49:55.272Z,14.90
2022-11-30T02:55:11.251Z,14.90
2022-11-30T03:00:21.444Z,14.93
2022-11-30T03:05:25.239Z,14.92
2022-11-30T03:10:30.327Z,14.94
2022-11-30T03:15:34.185Z,14.94
2022-11-30T03:20:41.955Z,14.94
2022-11-30T03:25:45.427Z,14.94
2022-11-30T03:30:51.932Z,14.94
2022-11-30T03:36:07.856Z,14.99
2022-11-30T03:41:14.927Z,14.98
2022-11-30T03:46:23.211Z,14.98
2022-11-30T03:51:26.739Z,15.00
2022-11-30T03:56:30.408Z,15.06
2022-11-30T04:01:35.059Z,15.09
2022-11-30T04:06:43.341Z,15.08
2022-11-30T04:11:46.610Z,15.06
2022-11-30T04:16:50.306Z,15.15
2022-11-30T04:21:55.031Z,15.04
2022-11-30T04:26:58.294Z,14.92
2022-11-30T04:32:03.230Z,14.80
2022-11-30T04:37:06.932Z,14.71
2022-11-30T04:42:10.330Z,14.67
2022-11-30T04:47:13.813Z,14.59
2022-11-30T04:52:17.325Z,14.53
2022-11-30T04:57:20.623Z,14.49
2022-11-30T05:02:23.770Z,14.47
2022-11-30T05:07:26.709Z,14.52
2022-11-30T05:12:31.421Z,14.63
2022-11-30T05:17:35.035Z,14.74
2022-11-30T05:22:38.485Z,14.95
2022-11-30T05:27:41.831Z,15.11
2022-11-30T05:32:45.361Z,15.20
2022-11-30T05:37:48.751Z,15.42
2022-11-30T05:42:57.081Z,15.51
2022-11-30T05:48:00.530Z,15.63
2022-11-30T05:53:05.297Z,15.87
2022-11-30T05:58:08.640Z,16.18
2022-11-30T06:03:12.500Z,16.43
2022-11-30T06:08:15.792Z,16.44
2022-11-30T06:13:19.225Z,16.39
2022-11-30T06:18:22.654Z,16.52
2022-11-30T06:23:25.914Z,16.46
2022-11-30T06:28:30.559Z,16.44
2022-11-30T06:33:35.712Z,16.28
2022-11-30T06:38:39.247Z,16.20
2022-11-30T06:43:43.092Z,16.26
2022-11-30T06:48:49.245Z,16.32
2022-11-30T06:53:53.237Z,16.39
2022-11-30T06:58:56.793Z,16.57
2022-11-30T07:04:00.404Z,16.71
2022-11-30T07:09:03.735Z,16.87
2022-11-30T07:14:07.234Z,17.10
2022-11-30T07:19:10.696Z,17.32
2022-11-30T07:24:14.893Z,17.56
2022-11-30T07:29:18.561Z,17.73
2022-11-30T07:34:22.238Z,17.75
2022-11-30T07:39:25.840Z,17.74
2022-11-30T07:44:29.253Z,17.79
2022-11-30T07:49:32.609Z,17.96
2022-11-30T07:54:36.005Z,18.12
2022-11-30T07:59:39.351Z,18.19
2022-11-30T08:04:42.640Z,18.33
2022-11-30T08:09:46.173Z,18.33
2022-11-30T08:15:18.685Z,18.26
2022-11-30T08:20:13.527Z,18.38
2022-11-30T08:25:17.039Z,18.46
2022-11-30T08:30:20.448Z,18.51
2022-11-30T08:35:23.917Z,18.54
2022-11-30T08:40:27.274Z,18.63
2022-11-30T08:45:30.846Z,18.77
2022-11-30T08:50:34.157Z,18.76
2022-11-30T08:55:37.608Z,18.88
2022-11-30T09:00:40.977Z,18.68
2022-11-30T09:05:44.516Z,18.50
2022-11-30T09:10:50.345Z,18.31
2022-11-30T09:15:57.335Z,18.20
2022-11-30T09:21:02.875Z,18.18
2022-11-30T09:26:08.963Z,18.24
2022-11-30T09:31:15.352Z,18.32
2022-11-30T09:36:22.683Z,18.31
2022-11-30T09:41:35.087Z,18.41
2022-11-30T09:46:54.827Z,18.67
2022-11-30T09:52:04.790Z,18.92
2022-11-30T09:57:14.303Z,19.02
2022-11-30T10:02:18.909Z,19.15
2022-11-30T10:07:37.449Z,19.48
2022-11-30T10:13:12.799Z,19.47
2022-11-30T10:18:38.189Z,19.44
2022-11-30T10:24:21.236Z,19.48
2022-11-30T10:29:37.985Z,19.67
2022-11-30T10:34:43.479Z,19.53
2022-11-30T10:39:55.619Z,19.45
2022-11-30T10:45:15.783Z,19.54
2022-11-30T10:50:20.925Z,19.47
2022-11-30T10:55:35.052Z,19.42
2022-11-30T11:00:40.338Z,19.36
2022-11-30T11:05:43.576Z,19.17
2022-11-30T11:10:49.669Z,18.98
2022-11-30T11:16:01.074Z,18.82
2022-11-30T11:21:18.944Z,18.67
2022-11-30T11:26:26.872Z,18.98
2022-11-30T11:32:05.641Z,19.37
2022-11-30T11:37:33.251Z,19.53
2022-11-30T11:42:42.261Z,19.47
2022-11-30T11:47:46.575Z,19.59
2022-11-30T11:52:50.657Z,19.50
2022-11-30T11:57:58.507Z,19.56
2022-11-30T12:03:46.192Z,19.48
2022-11-30T12:09:22.233Z,19.43
2022-11-30T12:14:26.568Z,19.36
2022-11-30T12:19:51.972Z,19.26
2022-11-30T12:25:25.019Z,19.19
2022-11-30T12:30:46.828Z,19.14
2022-11-30T12:36:22.148Z,19.08
2022-11-30T12:41:37.513Z,19.04
2022-11-30T12:47:01.959Z,19.00
2022-11-30T12:52:36.349Z,18.96
2022-11-30T12:58:04.139Z,19.03
2022-11-30T13:03:10.394Z,19.06
2022-11-30T13:08:32.110Z,19.19
2022-11-30T13:13:37.349Z,19.15
2022-11-30T13:18:43.043Z,19.02
2022-11-30T13:23:55.729Z,18.81
2022-11-30T13:29:17.036Z,18.70
2022-11-30T13:34:29.468Z,18.59
2022-11-30T13:39:54.581Z,18.46
2022-11-30T13:45:15.947Z,18.32
2022-11-30T13:50:39.927Z,18.24
2022-11-30T13:55:43.204Z,18.22
2022-11-30T14:01:26.494Z,18.20
2022-11-30T14:06:41.806Z,18.26
2022-11-30T14:11:46.565Z,18.35
2022-11-30T14:16:50.253Z,18.45
2022-11-30T14:21:55.078Z,18.38
2022-11-30T14:26:58.935Z,18.27
2022-11-30T14:32:13.676Z,18.10
2022-11-30T14:37:26.650Z,17.91
2022-11-30T14:42:32.762Z,17.73
2022-11-30T14:47:36.484Z,17.57
2022-11-30T14:52:57.806Z,17.43
2022-11-30T14:58:14.924Z,17.29
2022-11-30T15:03:40.644Z,17.17
2022-11-30T15:08:51.888Z,17.12
2022-11-30T15:14:09.097Z,17.04
2022-11-30T15:19:33.077Z,16.98
2022-11-30T15:24:38.264Z,16.93
2022-11-30T15:29:46.860Z,16.87
2022-11-30T15:34:56.818Z,16.80
2022-11-30T15:40:02.634Z,16.76
2022-11-30T15:45:19.256Z,16.72
2022-11-30T15:50:29.345Z,16.66
2022-11-30T15:55:49.367Z,16.62
2022-11-30T16:01:06.625Z,16.58
2022-11-30T16:06:19.487Z,16.56
2022-11-30T16:11:22.979Z,16.53
2022-11-30T16:16:30.862Z,16.51
2022-11-30T16:21:36.713Z,16.50
2022-11-30T16:26:51.043Z,16.47
2022-11-30T16:31:55.454Z,16.45
2022-11-30T16:36:59.128Z,16.42
2022-11-30T16:42:02.601Z,16.42
2022-11-30T16:47:07.758Z,16.40
2022-11-30T16:52:17.319Z,16.38
2022-11-30T16:57:20.919Z,16.33
2022-11-30T17:02:24.666Z,16.28
2022-11-30T17:07:28.479Z,16.25
2022-11-30T17:12:32.307Z,16.22
2022-11-30T17:17:35.747Z,16.21
2022-11-30T17:22:39.312Z,16.21
2022-11-30T17:27:43.234Z,16.21
2022-11-30T17:32:47.391Z,16.21
2022-11-30T17:37:53.704Z,16.20
2022-11-30T17:42:58.216Z,16.17
2022-11-30T17:48:01.906Z,16.18
2022-11-30T17:53:05.367Z,16.15
2022-11-30T17:58:08.763Z,16.15
2022-11-30T18:03:11.998Z,16.14
2022-11-30T18:08:17.249Z,16.14
2022-11-30T18:13:20.714Z,16.13
2022-11-30T18:18:24.032Z,16.13
2022-11-30T18:23:27.237Z,16.09
2022-11-30T18:28:32.423Z,16.11
2022-11-30T18:33:37.233Z,16.12
2022-11-30T18:38:40.795Z,16.12
2022-11-30T18:43:46.940Z,16.10
2022-11-30T18:48:53.015Z,16.06
2022-11-30T18:53:59.879Z,16.02
2022-11-30T18:59:10.767Z,16.00
2022-11-30T19:04:14.499Z,15.98
2022-11-30T19:09:19.927Z,15.95
2022-11-30T19:14:24.495Z,15.99
2022-11-30T19:19:29.293Z,15.98
2022-11-30T19:24:32.989Z,15.99
2022-11-30T19:29:36.550Z,15.99
2022-11-30T19:34:41.473Z,15.99
2022-11-30T19:39:46.476Z,16.02
2022-11-30T19:44:51.369Z,15.99
2022-11-30T19:49:55.817Z,15.96
2022-11-30T19:55:00.298Z,15.95
2022-11-30T20:00:06.291Z,15.94
2022-11-30T20:05:20.267Z,15.94
2022-11-30T20:10:27.714Z,15.93
2022-11-30T20:15:34.177Z,15.94
2022-11-30T20:20:38.912Z,15.91
2022-11-30T20:25:42.382Z,15.93
2022-11-30T20:30:47.636Z,15.93
2022-11-30T20:35:52.254Z,15.94
2022-11-30T20:40:56.784Z,15.89
2022-11-30T20:46:00.277Z,15.91
2022-11-30T20:51:30.254Z,15.88
2022-11-30T20:56:36.439Z,15.86
2022-11-30T21:01:42.822Z,15.88
2022-11-30T21:06:46.697Z,15.90
2022-11-30T21:11:50.472Z,15.89
2022-11-30T21:16:53.813Z,15.86
2022-11-30T21:21:57.325Z,15.81
2022-11-30T21:27:00.969Z,15.82
2022-11-30T21:32:05.156Z,15.80
2022-11-30T21:37:08.571Z,15.76
2022-11-30T21:42:12.110Z,15.76
2022-11-30T21:47:15.631Z,15.73
2022-11-30T21:52:19.904Z,15.71
2022-11-30T21:57:23.601Z,15.66
2022-11-30T22:02:26.943Z,15.61
2022-11-30T22:07:30.293Z,15.59
2022-11-30T22:12:33.702Z,15.59
2022-11-30T22:17:37.239Z,15.57
2022-11-30T22:22:40.823Z,15.53
2022-11-30T22:27:44.358Z,15.52
2022-11-30T22:32:47.645Z,15.52
2022-11-30T22:37:51.028Z,15.50
2022-11-30T22:42:54.762Z,15.51
2022-11-30T22:47:58.178Z,15.52
2022-11-30T22:53:03.284Z,15.50
2022-11-30T22:58:07.581Z,15.52
2022-11-30T23:03:14.499Z,15.49
2022-11-30T23:08:21.397Z,15.48
2022-11-30T23:13:25.911Z,15.49
2022-11-30T23:18:30.689Z,15.50
2022-11-30T23:23:34.277Z,15.50
2022-11-30T23:28:37.828Z,15.51
2022-11-30T23:33:42.075Z,15.52
2022-11-30T23:38:46.892Z,15.55
2022-11-30T23:43:50.352Z,15.60
2022-11-30T23:48:53.725Z,15.65
2022-11-30T23:53:57.012Z,15.75
2022-11-30T23:59:00.334Z,15.84
